Time;durP1;ratioP1;P1;durP2;ratioP2;P2;SDS_P1;SDS_P2;PMS_P1;PMS_P2;Temp;Humidity;BMP_temperature;BMP_pressure;BME280_temperature;BME280_humidity;BME280_pressure;Samples;Min_cycle;Max_cycle;Signal;HPM_P1;HPM_P2
2023/08/09 00:01:43;;;;;;;1.60;0.93;;;19.40;99.90;;;;;;7389242;19;20134;-76
2023/08/09 00:04:09;;;;;;;1.10;0.98;;;19.50;99.90;;;;;;7384809;19;20150;-77
2023/08/09 00:06:35;;;;;;;3.33;1.20;;;19.40;99.90;;;;;;7382662;19;20148;-76
2023/08/09 00:09:00;;;;;;;1.20;1.00;;;19.40;99.90;;;;;;7389922;19;20129;-76
2023/08/09 00:11:26;;;;;;;2.75;1.00;;;19.30;99.90;;;;;;7388979;19;20213;-75
2023/08/09 00:13:52;;;;;;;2.70;1.33;;;19.30;99.90;;;;;;7388581;19;20143;-75
2023/08/09 00:16:17;;;;;;;1.30;1.20;;;19.40;99.90;;;;;;7390346;19;20149;-75
2023/08/09 00:18:43;;;;;;;3.22;1.40;;;19.40;99.90;;;;;;7389288;19;20163;-75
2023/08/09 00:21:09;;;;;;;1.05;0.95;;;19.50;99.90;;;;;;7385955;19;20638;-76
2023/08/09 00:23:35;;;;;;;1.35;1.10;;;19.60;99.90;;;;;;7388737;19;20129;-75
2023/08/09 00:26:01;;;;;;;2.85;1.15;;;19.70;99.90;;;;;;7389040;19;20205;-75
2023/08/09 00:28:27;;;;;;;1.55;1.17;;;19.50;99.90;;;;;;7385999;19;20176;-74
2023/08/09 00:30:54;;;;;;;1.58;1.45;;;19.60;99.90;;;;;;7388942;19;20210;-75
2023/08/09 00:33:20;;;;;;;2.10;1.17;;;19.50;99.90;;;;;;7389927;19;20747;-75
2023/08/09 00:35:45;;;;;;;1.80;1.10;;;19.50;99.90;;;;;;7388092;19;20193;-76
2023/08/09 00:38:11;;;;;;;2.30;1.20;;;19.40;99.90;;;;;;7388437;19;20223;-76
2023/08/09 00:40:38;;;;;;;1.10;1.00;;;19.40;99.90;;;;;;7385863;19;20603;-75
2023/08/09 00:43:04;;;;;;;2.17;1.25;;;19.30;99.90;;;;;;7390724;19;20143;-76
2023/08/09 00:45:30;;;;;;;2.90;1.20;;;19.30;99.90;;;;;;7389923;19;20134;-76
2023/08/09 00:47:56;;;;;;;2.38;1.30;;;19.40;99.90;;;;;;7390702;19;20146;-76
2023/08/09 00:50:21;;;;;;;2.72;1.05;;;19.50;99.90;;;;;;7388239;19;20164;-76
2023/08/09 00:52:48;;;;;;;1.35;1.05;;;19.40;99.90;;;;;;7387144;19;20615;-74
2023/08/09 00:55:14;;;;;;;2.45;1.33;;;19.30;99.90;;;;;;7388433;19;20202;-77
2023/08/09 00:57:40;;;;;;;2.63;1.20;;;19.10;99.90;;;;;;7386731;19;20229;-75
2023/08/09 01:00:07;;;;;;;1.23;0.93;;;19.20;99.90;;;;;;7385617;19;20146;-75
2023/08/09 01:02:33;;;;;;;1.23;1.02;;;19.20;99.90;;;;;;7387166;19;20173;-75
2023/08/09 01:04:59;;;;;;;1.50;1.17;;;19.30;99.90;;;;;;7379242;19;20225;-75
2023/08/09 01:07:35;;;;;;;3.33;1.25;;;19.40;99.90;;;;;;7390016;19;20139;-75
2023/08/09 01:10:28;;;;;;;2.42;1.27;;;19.40;99.90;;;;;;7388733;19;20146;-74
2023/08/09 01:13:05;;;;;;;1.02;0.90;;;19.40;99.90;;;;;;7388773;19;20194;-75
2023/08/09 01:15:38;;;;;;;2.95;1.10;;;19.30;99.90;;;;;;7389455;19;20135;-75
2023/08/09 01:18:06;;;;;;;3.47;1.50;;;19.30;99.90;;;;;;7388688;19;20234;-76
2023/08/09 01:20:34;;;;;;;2.55;1.13;;;19.30;99.90;;;;;;7385300;19;20138;-76
2023/08/09 01:23:03;;;;;;;1.40;1.00;;;19.20;99.90;;;;;;7388377;19;20142;-74
2023/08/09 01:25:30;;;;;;;2.33;1.20;;;19.30;99.90;;;;;;7387621;19;20137;-75
2023/08/09 01:27:57;;;;;;;2.25;1.50;;;19.30;99.90;;;;;;7388815;19;20153;-77
2023/08/09 01:30:23;;;;;;;2.25;1.30;;;19.30;99.90;;;;;;7387618;19;20127;-74
2023/08/09 01:32:49;;;;;;;1.35;1.08;;;19.40;99.90;;;;;;7386711;19;20611;-74
2023/08/09 01:35:16;;;;;;;1.98;1.20;;;19.30;99.90;;;;;;7389437;19;20202;-75
2023/08/09 01:37:59;;;;;;;1.65;1.15;;;19.40;99.90;;;;;;7387746;19;20670;-75
2023/08/09 01:40:26;;;;;;;2.28;1.08;;;19.40;99.90;;;;;;7387313;19;20198;-73
2023/08/09 01:42:52;;;;;;;2.05;1.27;;;19.30;99.90;;;;;;7388020;19;20143;-74
2023/08/09 01:45:19;;;;;;;2.42;1.33;;;19.30;99.90;;;;;;7388456;19;21134;-77
2023/08/09 01:47:45;;;;;;;1.52;1.00;;;19.30;99.90;;;;;;7389686;19;20138;-75
2023/08/09 01:50:25;;;;;;;1.20;1.10;;;19.10;99.90;;;;;;7386972;19;20151;-74
2023/08/09 01:52:55;;;;;;;1.50;1.00;;;19.10;99.90;;;;;;7388534;19;20130;-74
2023/08/09 01:55:22;;;;;;;1.95;1.23;;;19.00;99.90;;;;;;7386510;19;20218;-76
2023/08/09 01:57:49;;;;;;;1.88;1.15;;;19.10;99.90;;;;;;7387682;19;20247;-74
2023/08/09 02:00:19;;;;;;;1.75;1.40;;;19.10;99.90;;;;;;7385686;19;20135;-74
2023/08/09 02:02:47;;;;;;;2.45;1.60;;;19.10;99.90;;;;;;7385751;19;20172;-73
2023/08/09 02:05:13;;;;;;;4.47;1.70;;;19.10;99.90;;;;;;7386735;19;20135;-74
2023/08/09 02:07:39;;;;;;;2.58;1.50;;;19.10;99.90;;;;;;7385624;19;20175;-74
2023/08/09 02:10:10;;;;;;;3.30;1.25;;;19.10;99.90;;;;;;7385026;19;20131;-73
2023/08/09 02:12:40;;;;;;;1.23;1.13;;;19.00;99.90;;;;;;7389132;19;20131;-73
2023/08/09 02:15:06;;;;;;;1.88;1.30;;;19.00;99.90;;;;;;7388416;19;20134;-74
2023/08/09 02:17:34;;;;;;;1.55;1.25;;;19.00;99.90;;;;;;7386317;19;20146;-75
2023/08/09 02:20:00;;;;;;;2.03;1.25;;;18.90;99.90;;;;;;7385021;19;20137;-76
2023/08/09 02:22:26;;;;;;;1.27;1.10;;;18.90;99.90;;;;;;7385909;19;20578;-74
2023/08/09 02:24:52;;;;;;;1.83;1.08;;;18.90;99.90;;;;;;7387096;19;20210;-74
2023/08/09 02:27:18;;;;;;;2.35;0.98;;;18.80;99.90;;;;;;7388326;19;20146;-73
2023/08/09 02:29:44;;;;;;;2.20;1.20;;;18.90;99.90;;;;;;7390750;19;20605;-74
2023/08/09 02:32:09;;;;;;;2.53;1.13;;;18.90;99.90;;;;;;7393290;19;20139;-75
2023/08/09 02:34:36;;;;;;;1.70;1.33;;;18.90;99.90;;;;;;7392003;19;20218;-75
2023/08/09 02:37:04;;;;;;;1.20;0.93;;;18.90;99.90;;;;;;7392241;19;20151;-74
2023/08/09 02:39:31;;;;;;;1.73;1.30;;;18.90;99.90;;;;;;7393014;19;20640;-75
2023/08/09 02:41:59;;;;;;;3.38;1.40;;;18.90;99.90;;;;;;7392335;19;20158;-75
2023/08/09 02:44:25;;;;;;;2.28;1.25;;;19.00;99.90;;;;;;7393284;19;20174;-75
2023/08/09 02:46:51;;;;;;;1.60;1.23;;;18.90;99.90;;;;;;7393456;19;20147;-75
2023/08/09 02:49:17;;;;;;;2.30;1.40;;;18.90;99.90;;;;;;7391282;19;20481;-74
2023/08/09 02:51:43;;;;;;;1.73;1.20;;;18.90;99.90;;;;;;7391355;19;20138;-74
2023/08/09 02:54:08;;;;;;;1.23;1.13;;;18.90;99.90;;;;;;7394045;19;20178;-74
2023/08/09 02:56:34;;;;;;;2.83;1.50;;;19.00;99.90;;;;;;7391275;19;20135;-75
2023/08/09 02:59:02;;;;;;;1.50;1.00;;;19.00;99.90;;;;;;7391847;19;20142;-75
2023/08/09 03:01:29;;;;;;;3.30;1.00;;;19.00;99.90;;;;;;7393674;19;20145;-75
2023/08/09 03:03:57;;;;;;;1.83;1.60;;;18.90;99.90;;;;;;7392874;19;20506;-76
2023/08/09 03:06:24;;;;;;;2.33;1.45;;;18.80;99.90;;;;;;7392987;19;20134;-74
2023/08/09 03:08:51;;;;;;;2.40;1.33;;;18.70;99.90;;;;;;7393097;19;20139;-75
2023/08/09 03:11:23;;;;;;;2.97;1.38;;;18.80;99.90;;;;;;7390719;19;20182;-75
2023/08/09 03:13:49;;;;;;;1.90;1.20;;;18.70;99.90;;;;;;7394941;19;20131;-75
2023/08/09 03:16:15;;;;;;;2.45;1.50;;;18.60;99.90;;;;;;7391651;19;20143;-74
2023/08/09 03:18:41;;;;;;;2.15;1.13;;;18.50;99.90;;;;;;7392417;19;20135;-75
2023/08/09 03:21:07;;;;;;;2.13;1.30;;;18.60;99.90;;;;;;7387416;19;20814;-75
2023/08/09 03:23:34;;;;;;;2.22;1.00;;;18.80;99.90;;;;;;7391312;19;20142;-74
2023/08/09 03:26:00;;;;;;;2.08;1.40;;;18.90;99.90;;;;;;7389820;19;20142;-74
2023/08/09 03:28:27;;;;;;;1.23;1.13;;;19.00;99.90;;;;;;7391975;19;20246;-74
2023/08/09 03:30:53;;;;;;;2.25;1.35;;;18.90;99.90;;;;;;7391689;19;20141;-75
2023/08/09 03:33:19;;;;;;;2.08;1.20;;;18.90;99.90;;;;;;7391549;19;20131;-74
2023/08/09 03:35:44;;;;;;;2.60;1.70;;;18.80;99.90;;;;;;7390120;19;20246;-73
2023/08/09 03:38:10;;;;;;;5.28;2.15;;;18.80;99.90;;;;;;7390707;19;20153;-74
2023/08/09 03:40:36;;;;;;;2.80;1.63;;;18.80;99.90;;;;;;7388153;19;20139;-73
2023/08/09 03:43:02;;;;;;;5.18;1.50;;;18.90;99.90;;;;;;7392196;19;20149;-74
2023/08/09 03:45:29;;;;;;;1.60;1.08;;;18.90;99.90;;;;;;7391232;19;20516;-75
2023/08/09 03:47:56;;;;;;;3.83;1.40;;;18.90;99.90;;;;;;7390238;19;20140;-75
2023/08/09 03:50:21;;;;;;;2.85;1.40;;;18.90;99.90;;;;;;7390490;19;20179;-75
2023/08/09 03:52:47;;;;;;;4.95;1.42;;;18.80;99.90;;;;;;7391829;19;20654;-75
2023/08/09 03:55:13;;;;;;;1.95;1.20;;;18.80;99.90;;;;;;7391308;19;20138;-74
2023/08/09 03:57:39;;;;;;;2.58;1.25;;;18.90;99.90;;;;;;7393033;19;20130;-73
2023/08/09 04:00:08;;;;;;;1.77;1.20;;;18.90;99.90;;;;;;7389126;19;20160;-73
2023/08/09 04:02:34;;;;;;;1.48;1.23;;;18.80;99.90;;;;;;7391681;19;20143;-73
2023/08/09 04:05:00;;;;;;;1.63;1.13;;;18.90;99.90;;;;;;7387083;19;20228;-76
2023/08/09 04:07:25;;;;;;;1.60;1.25;;;18.90;99.90;;;;;;7390412;19;20204;-75
2023/08/09 04:09:51;;;;;;;2.35;1.25;;;18.90;99.90;;;;;;7392047;19;20130;-74
2023/08/09 04:12:17;;;;;;;2.45;1.60;;;19.00;99.90;;;;;;7392438;19;20138;-75
2023/08/09 04:14:43;;;;;;;2.20;1.02;;;19.00;99.90;;;;;;7391623;19;20129;-75
2023/08/09 04:17:09;;;;;;;1.70;0.98;;;19.00;99.90;;;;;;7389553;19;20461;-73
2023/08/09 04:19:34;;;;;;;2.05;1.10;;;18.90;99.90;;;;;;7387674;19;20150;-74
2023/08/09 04:22:00;;;;;;;1.55;1.40;;;19.00;99.90;;;;;;7388850;19;20134;-75
2023/08/09 04:24:26;;;;;;;2.90;1.35;;;18.90;99.90;;;;;;7385348;19;20138;-75
2023/08/09 04:26:52;;;;;;;3.47;1.38;;;18.90;99.90;;;;;;7390604;19;20452;-75
2023/08/09 04:29:18;;;;;;;1.25;1.10;;;18.80;99.90;;;;;;7391541;19;20157;-75
2023/08/09 04:31:44;;;;;;;2.25;1.30;;;18.90;99.90;;;;;;7387577;19;20641;-74
2023/08/09 04:34:11;;;;;;;1.55;1.38;;;18.90;99.90;;;;;;7387751;19;20614;-74
2023/08/09 04:36:36;;;;;;;2.75;1.45;;;18.90;99.90;;;;;;7387658;19;20394;-75
2023/08/09 04:39:08;;;;;;;1.85;1.50;;;18.80;99.90;;;;;;7387749;19;20614;-73
2023/08/09 04:41:37;;;;;;;4.33;1.97;;;18.90;99.90;;;;;;7388057;19;20405;-75
2023/08/09 04:44:03;;;;;;;1.63;1.13;;;19.00;99.90;;;;;;7387765;19;20138;-76
2023/08/09 04:46:28;;;;;;;2.05;1.30;;;19.00;99.90;;;;;;7387948;19;20665;-75
2023/08/09 04:48:54;;;;;;;2.25;1.20;;;19.00;99.90;;;;;;7388482;19;20143;-75
2023/08/09 04:51:20;;;;;;;1.42;1.00;;;18.90;99.90;;;;;;7391750;19;20228;-77
2023/08/09 04:53:46;;;;;;;1.58;1.25;;;18.90;99.90;;;;;;7389371;19;20142;-76
2023/08/09 04:56:11;;;;;;;1.50;1.08;;;19.00;99.90;;;;;;7390686;19;20190;-75
2023/08/09 04:58:38;;;;;;;1.50;1.20;;;19.00;99.90;;;;;;7389268;19;20166;-75
2023/08/09 05:01:06;;;;;;;2.55;1.48;;;18.90;99.90;;;;;;7388585;19;20135;-75
2023/08/09 05:03:32;;;;;;;3.88;1.55;;;18.90;99.90;;;;;;7389477;19;20201;-75
2023/08/09 05:05:57;;;;;;;2.67;1.50;;;18.90;99.90;;;;;;7389906;19;20562;-77
2023/08/09 05:08:23;;;;;;;3.13;1.90;;;19.00;99.90;;;;;;7391202;19;20134;-76
2023/08/09 05:10:49;;;;;;;4.75;1.63;;;19.00;99.90;;;;;;7388819;19;20130;-76
2023/08/09 05:13:15;;;;;;;5.00;1.80;;;19.00;99.90;;;;;;7392283;19;20131;-77
2023/08/09 05:15:40;;;;;;;3.25;1.88;;;19.00;99.90;;;;;;7390873;19;20852;-77
2023/08/09 05:18:06;;;;;;;3.50;1.90;;;19.00;99.90;;;;;;7391050;19;20130;-75
2023/08/09 05:20:32;;;;;;;4.72;1.85;;;19.10;99.90;;;;;;7386960;19;20130;-75
2023/08/09 05:22:58;;;;;;;3.50;1.70;;;19.00;99.90;;;;;;7393671;19;20126;-76
2023/08/09 05:25:24;;;;;;;2.60;1.52;;;19.00;99.90;;;;;;7391810;19;20126;-75
2023/08/09 05:27:50;;;;;;;5.80;2.20;;;18.80;99.90;;;;;;7389428;19;20493;-76
2023/08/09 05:30:21;;;;;;;5.82;1.83;;;18.80;99.90;;;;;;7390445;19;20134;-76
2023/08/09 05:32:47;;;;;;;4.13;1.60;;;18.90;99.90;;;;;;7390248;19;20146;-77
2023/08/09 05:35:13;;;;;;;3.92;1.20;;;18.90;99.90;;;;;;7391544;19;20161;-77
2023/08/09 05:37:39;;;;;;;1.63;1.20;;;18.80;99.90;;;;;;7389447;19;20159;-76
2023/08/09 05:40:13;;;;;;;3.17;1.23;;;18.70;99.90;;;;;;7388132;19;20590;-76
2023/08/09 05:42:39;;;;;;;3.25;1.90;;;18.90;99.90;;;;;;7389117;19;20180;-75
2023/08/09 05:45:06;;;;;;;3.72;2.00;;;19.00;99.90;;;;;;7391711;19;20145;-76
2023/08/09 05:47:32;;;;;;;3.03;1.80;;;19.00;99.90;;;;;;7389134;19;20145;-75
2023/08/09 05:49:58;;;;;;;2.72;2.00;;;19.10;99.90;;;;;;7387541;19;20147;-76
2023/08/09 05:52:24;;;;;;;6.47;2.22;;;18.90;99.90;;;;;;7384655;19;20150;-76
2023/08/09 05:54:50;;;;;;;5.68;2.10;;;19.00;99.90;;;;;;7388206;19;20742;-75
2023/08/09 05:57:16;;;;;;;6.72;2.45;;;18.90;99.90;;;;;;7387959;19;20139;-75
2023/08/09 05:59:41;;;;;;;3.92;2.38;;;18.90;99.90;;;;;;7386853;19;20632;-75
2023/08/09 06:02:07;;;;;;;2.45;1.50;;;18.90;99.90;;;;;;7391018;19;20210;-77
2023/08/09 06:04:33;;;;;;;2.90;1.33;;;18.90;99.90;;;;;;7393403;19;20196;-75
2023/08/09 06:07:01;;;;;;;2.13;1.35;;;18.90;99.90;;;;;;7394147;19;20164;-75
2023/08/09 06:09:29;;;;;;;4.22;1.15;;;19.00;99.90;;;;;;7393328;19;20156;-77
2023/08/09 06:11:55;;;;;;;1.25;1.00;;;18.80;99.90;;;;;;7395484;19;20131;-76
2023/08/09 06:14:24;;;;;;;3.92;1.00;;;18.90;99.90;;;;;;7396577;19;20169;-75
2023/08/09 06:16:50;;;;;;;2.83;0.98;;;18.90;99.90;;;;;;7394080;19;20154;-76
2023/08/09 06:19:19;;;;;;;1.83;1.10;;;18.90;99.90;;;;;;7392613;19;20143;-76
2023/08/09 06:21:45;;;;;;;4.13;1.08;;;19.10;99.90;;;;;;7396320;19;20214;-77
2023/08/09 06:24:11;;;;;;;3.47;1.83;;;19.20;99.90;;;;;;7393757;19;20690;-76
2023/08/09 06:26:39;;;;;;;2.78;1.30;;;19.10;99.90;;;;;;7393209;19;20139;-75
2023/08/09 06:29:06;;;;;;;1.85;1.23;;;19.10;99.90;;;;;;7396777;19;20496;-77
2023/08/09 06:31:37;;;;;;;2.05;1.02;;;19.10;99.90;;;;;;7393895;19;20202;-74
2023/08/09 06:34:16;;;;;;;1.90;1.00;;;19.20;99.90;;;;;;7394606;19;20142;-74
2023/08/09 06:36:45;;;;;;;1.90;1.20;;;19.10;99.90;;;;;;7397015;19;20151;-77
2023/08/09 06:39:16;;;;;;;3.00;1.05;;;19.20;99.90;;;;;;7396533;19;20617;-75
2023/08/09 06:41:45;;;;;;;1.92;1.15;;;19.30;99.90;;;;;;7396154;19;20147;-75
2023/08/09 06:44:10;;;;;;;5.60;1.60;;;19.50;99.90;;;;;;7392912;19;20131;-75
2023/08/09 06:47:01;;;;;;;3.17;1.70;;;19.70;99.90;;;;;;7391021;19;20614;-74
2023/08/09 06:49:33;;;;;;;2.95;1.38;;;19.70;99.90;;;;;;7392561;19;20139;-74
2023/08/09 06:52:00;;;;;;;2.72;1.45;;;19.70;99.90;;;;;;7394693;19;20214;-75
2023/08/09 06:54:27;;;;;;;3.40;1.23;;;19.80;99.90;;;;;;7390743;19;20150;-74
2023/08/09 06:56:53;;;;;;;2.15;1.30;;;19.80;99.90;;;;;;7391935;19;20143;-76
2023/08/09 06:59:22;;;;;;;1.60;1.00;;;20.00;99.90;;;;;;7394520;19;20146;-77
2023/08/09 07:01:48;;;;;;;1.15;1.05;;;20.00;99.90;;;;;;7393287;19;20135;-79
2023/08/09 07:04:17;;;;;;;2.13;1.23;;;20.10;99.90;;;;;;7389711;19;20614;-74
2023/08/09 07:06:49;;;;;;;4.20;1.30;;;20.20;99.90;;;;;;7391805;19;20778;-73
2023/08/09 07:09:18;;;;;;;3.00;1.23;;;20.20;99.90;;;;;;7388624;19;20455;-75
2023/08/09 07:11:46;;;;;;;3.70;2.40;;;20.10;99.90;;;;;;7385983;19;20146;-76
2023/08/09 07:14:14;;;;;;;1.95;1.58;;;20.10;99.90;;;;;;7390170;19;20154;-75
2023/08/09 07:16:46;;;;;;;2.88;1.40;;;20.00;99.90;;;;;;7393142;19;20138;-74
2023/08/09 07:19:18;;;;;;;3.50;1.08;;;19.80;99.90;;;;;;7390642;19;20579;-76
2023/08/09 07:21:46;;;;;;;3.58;1.80;;;19.80;99.90;;;;;;7390268;19;20138;-76
2023/08/09 07:24:12;;;;;;;4.80;2.40;;;19.90;99.90;;;;;;7387813;19;20142;-75
2023/08/09 07:26:38;;;;;;;4.47;1.88;;;19.90;99.90;;;;;;7388960;19;20229;-77
2023/08/09 07:29:07;;;;;;;3.70;1.52;;;19.90;99.90;;;;;;7391009;19;20169;-76
2023/08/09 07:31:33;;;;;;;2.28;1.63;;;20.00;99.90;;;;;;7390909;19;20142;-76
2023/08/09 07:33:58;;;;;;;2.35;1.58;;;20.00;99.90;;;;;;7392632;19;20141;-76
2023/08/09 07:36:27;;;;;;;2.20;1.15;;;20.00;99.90;;;;;;7393255;19;20130;-75
2023/08/09 07:38:57;;;;;;;4.22;1.40;;;20.10;99.90;;;;;;7388767;19;20492;-77
2023/08/09 07:41:28;;;;;;;2.65;1.10;;;20.10;99.90;;;;;;7386644;19;20158;-75
2023/08/09 07:43:57;;;;;;;8.15;6.93;;;20.10;99.90;;;;;;7392620;19;20134;-77
2023/08/09 07:46:22;;;;;;;2.95;2.30;;;20.10;99.90;;;;;;7390808;19;20226;-75
2023/08/09 07:48:52;;;;;;;4.25;1.88;;;20.10;99.90;;;;;;7390139;19;20154;-75
2023/08/09 07:51:24;;;;;;;7.55;4.10;;;20.20;99.90;;;;;;7391467;19;20146;-76
2023/08/09 07:53:53;;;;;;;2.13;1.88;;;20.10;99.90;;;;;;7393034;19;20146;-76
2023/08/09 07:56:19;;;;;;;2.95;1.55;;;20.20;99.90;;;;;;7390447;19;20167;-77
2023/08/09 07:58:47;;;;;;;1.90;1.13;;;20.40;99.90;;;;;;7390582;19;20147;-77
2023/08/09 08:01:13;;;;;;;2.45;1.23;;;20.50;99.90;;;;;;7388110;19;20143;-76
2023/08/09 08:03:39;;;;;;;1.63;1.25;;;20.40;99.90;;;;;;7387636;19;20170;-75
2023/08/09 08:06:05;;;;;;;1.77;1.08;;;20.40;99.90;;;;;;7388773;19;20518;-75
2023/08/09 08:08:36;;;;;;;2.55;1.40;;;20.40;99.90;;;;;;7388888;19;20135;-76
2023/08/09 08:11:02;;;;;;;3.72;1.10;;;20.40;99.90;;;;;;7391576;19;20127;-78
2023/08/09 08:13:28;;;;;;;2.65;1.10;;;20.40;99.90;;;;;;7390750;19;20137;-76
2023/08/09 08:15:54;;;;;;;1.50;0.93;;;20.30;99.90;;;;;;7389522;19;20215;-78
2023/08/09 08:18:19;;;;;;;2.17;1.02;;;20.30;99.90;;;;;;7393036;19;20229;-78
2023/08/09 08:20:45;;;;;;;1.60;1.00;;;20.40;99.90;;;;;;7386780;19;20142;-77
2023/08/09 08:23:11;;;;;;;2.97;1.95;;;20.50;99.90;;;;;;7390178;19;20127;-73
2023/08/09 08:25:36;;;;;;;3.10;1.60;;;20.50;99.90;;;;;;7387331;19;20391;-73
2023/08/09 08:28:05;;;;;;;3.88;1.20;;;20.50;99.90;;;;;;7388898;19;20161;-73
2023/08/09 08:30:48;;;;;;;1.90;1.20;;;20.30;99.90;;;;;;7389357;19;20209;-76
2023/08/09 08:33:24;;;;;;;3.42;1.25;;;20.40;99.90;;;;;;7392100;19;20143;-75
2023/08/09 08:35:51;;;;;;;5.10;1.80;;;20.20;99.90;;;;;;7389990;19;20138;-75
2023/08/09 08:38:17;;;;;;;4.03;2.22;;;20.20;99.90;;;;;;7391538;19;20130;-74
2023/08/09 08:40:57;;;;;;;4.00;1.20;;;20.50;99.90;;;;;;7387221;19;20785;-75
2023/08/09 08:43:27;;;;;;;3.17;1.70;;;20.50;99.90;;;;;;7388976;19;20142;-74
2023/08/09 08:45:54;;;;;;;1.52;1.30;;;20.30;99.90;;;;;;7390132;19;20178;-73
2023/08/09 08:48:21;;;;;;;2.22;1.80;;;20.20;99.90;;;;;;7390066;19;20138;-73
2023/08/09 08:50:50;;;;;;;2.10;1.58;;;20.40;99.90;;;;;;7391026;19;20139;-76
2023/08/09 08:53:18;;;;;;;1.52;1.02;;;20.40;99.90;;;;;;7391215;19;20137;-76
2023/08/09 08:55:47;;;;;;;1.48;1.00;;;20.20;99.90;;;;;;7391398;19;20138;-73
2023/08/09 08:58:14;;;;;;;1.95;1.45;;;20.40;99.90;;;;;;7390728;19;20492;-75
2023/08/09 09:00:40;;;;;;;1.88;1.15;;;20.40;99.90;;;;;;7389253;19;20147;-75
2023/08/09 09:03:06;;;;;;;3.35;1.40;;;20.50;99.90;;;;;;7388258;19;20147;-75
2023/08/09 09:05:37;;;;;;;4.07;1.35;;;20.60;99.90;;;;;;7388769;19;20134;-75
2023/08/09 09:08:04;;;;;;;2.70;1.52;;;20.60;99.90;;;;;;7389078;19;20141;-74
2023/08/09 09:10:30;;;;;;;2.30;1.25;;;20.50;99.90;;;;;;7387180;19;20161;-75
2023/08/09 09:12:58;;;;;;;1.90;1.30;;;20.60;99.90;;;;;;7387676;19;20181;-74
2023/08/09 09:15:27;;;;;;;3.35;1.10;;;20.60;99.90;;;;;;7388160;19;20167;-74
2023/08/09 09:17:53;;;;;;;2.28;1.42;;;20.40;99.90;;;;;;7387396;19;20148;-75
2023/08/09 09:20:42;;;;;;;3.17;1.38;;;20.70;99.90;;;;;;7384398;19;20184;-75
2023/08/09 09:23:27;;;;;;;2.63;1.58;;;20.70;99.90;;;;;;7390050;19;20161;-75
2023/08/09 09:26:16;;;;;;;1.85;1.00;;;20.60;99.90;;;;;;7386850;19;20142;-74
2023/08/09 09:28:44;;;;;;;2.60;1.17;;;20.30;99.90;;;;;;7390460;19;20214;-75
2023/08/09 09:31:17;;;;;;;2.28;1.00;;;20.50;99.90;;;;;;7387385;19;20158;-76
2023/08/09 09:33:55;;;;;;;1.55;1.05;;;20.40;99.90;;;;;;7385460;19;20157;-73
2023/08/09 09:36:23;;;;;;;3.15;1.88;;;20.50;99.90;;;;;;7390383;19;20142;-73
2023/08/09 09:38:56;;;;;;;1.92;1.10;;;20.60;99.90;;;;;;7391115;19;20156;-73
2023/08/09 09:41:22;;;;;;;2.05;1.20;;;20.80;99.90;;;;;;7393863;19;20178;-76
2023/08/09 09:43:51;;;;;;;3.35;1.55;;;20.80;99.90;;;;;;7392450;19;20140;-74
2023/08/09 09:46:22;;;;;;;2.55;1.40;;;20.70;99.90;;;;;;7393469;19;20739;-74
2023/08/09 09:48:57;;;;;;;2.28;1.30;;;20.60;99.90;;;;;;7391749;19;20161;-74
2023/08/09 09:51:24;;;;;;;2.03;1.20;;;20.30;99.90;;;;;;7395555;19;21342;-76
2023/08/09 09:53:53;;;;;;;2.03;1.40;;;20.60;99.90;;;;;;7393704;19;20172;-73
2023/08/09 09:56:19;;;;;;;2.13;1.45;;;20.60;99.90;;;;;;7393189;19;20550;-74
2023/08/09 09:58:48;;;;;;;2.10;1.20;;;20.80;99.90;;;;;;7391339;19;20135;-74
2023/08/09 10:01:25;;;;;;;2.55;1.17;;;20.70;99.90;;;;;;7392980;19;20158;-75
2023/08/09 10:04:24;;;;;;;2.53;1.17;;;20.80;99.90;;;;;;7392814;19;20158;-74
2023/08/09 10:06:58;;;;;;;1.63;1.02;;;20.80;99.90;;;;;;7393028;19;20182;-75
2023/08/09 10:09:27;;;;;;;4.30;1.20;;;20.80;99.90;;;;;;7390548;19;20175;-75
2023/08/09 10:12:07;;;;;;;2.13;1.27;;;21.00;99.90;;;;;;7392824;19;20422;-74
2023/08/09 10:14:34;;;;;;;2.95;1.63;;;20.90;99.90;;;;;;7390240;19;20433;-74
2023/08/09 10:17:04;;;;;;;5.53;1.40;;;20.80;99.90;;;;;;7393117;19;20134;-75
2023/08/09 10:19:33;;;;;;;2.10;1.30;;;20.90;99.90;;;;;;7390119;19;20144;-76
2023/08/09 10:22:11;;;;;;;2.50;0.90;;;20.90;99.90;;;;;;7391958;19;20450;-74
2023/08/09 10:24:48;;;;;;;5.18;1.58;;;21.00;99.90;;;;;;7386621;19;20496;-74
2023/08/09 10:27:14;;;;;;;3.17;1.38;;;20.80;99.90;;;;;;7393902;19;20161;-75
2023/08/09 10:29:42;;;;;;;2.00;1.10;;;20.80;99.90;;;;;;7388971;19;20597;-73
2023/08/09 10:32:11;;;;;;;2.25;1.30;;;21.00;99.90;;;;;;7386233;19;20497;-73
2023/08/09 10:34:40;;;;;;;3.38;2.13;;;20.90;99.90;;;;;;7389604;19;20166;-73
2023/08/09 10:37:07;;;;;;;4.32;2.90;;;20.90;99.90;;;;;;7391113;19;20149;-75
2023/08/09 10:39:34;;;;;;;1.13;0.98;;;20.80;99.90;;;;;;7392072;19;20146;-73
2023/08/09 10:42:06;;;;;;;1.33;0.98;;;20.90;99.90;;;;;;7392190;19;20148;-72
2023/08/09 10:44:33;;;;;;;3.47;1.30;;;21.00;99.90;;;;;;7387746;19;20461;-72
2023/08/09 10:47:16;;;;;;;2.55;1.20;;;20.90;99.90;;;;;;7388993;19;20422;-72
2023/08/09 10:49:48;;;;;;;1.80;1.15;;;21.00;99.90;;;;;;7392577;19;20138;-74
2023/08/09 10:52:14;;;;;;;2.38;1.02;;;21.00;99.90;;;;;;7392893;19;20138;-72
2023/08/09 10:54:40;;;;;;;3.40;1.83;;;21.10;99.90;;;;;;7391681;19;20205;-74
2023/08/09 10:57:16;;;;;;;3.63;1.20;;;21.30;99.90;;;;;;7394540;19;20472;-79
2023/08/09 10:59:46;;;;;;;1.35;0.88;;;21.30;99.90;;;;;;7389751;19;20490;-78
2023/08/09 11:02:18;;;;;;;3.83;1.10;;;21.50;99.90;;;;;;7390910;19;20520;-77
2023/08/09 11:04:45;;;;;;;1.35;1.10;;;21.50;99.90;;;;;;7388121;19;20199;-76
2023/08/09 11:10:16;;;;;;;3.03;1.00;;;21.40;99.90;;;;;;7392155;19;20146;-79
2023/08/09 11:12:53;;;;;;;2.20;1.52;;;21.50;99.90;;;;;;7390355;19;20252;-80
2023/08/09 11:15:22;;;;;;;6.88;1.30;;;21.30;99.90;;;;;;7392661;19;20145;-79
2023/08/09 11:17:51;;;;;;;1.33;1.13;;;21.40;99.90;;;;;;7391857;19;20138;-81
2023/08/09 11:20:17;;;;;;;2.92;1.45;;;21.50;99.90;;;;;;7390517;19;20599;-79
2023/08/09 11:22:59;;;;;;;1.52;1.05;;;21.50;99.90;;;;;;7390319;19;20209;-80
2023/08/09 11:25:31;;;;;;;3.13;1.00;;;21.20;99.90;;;;;;7392946;19;20138;-75
2023/08/09 11:27:58;;;;;;;5.18;1.40;;;21.30;99.90;;;;;;7391293;19;20511;-73
2023/08/09 11:30:25;;;;;;;2.05;1.27;;;21.30;99.90;;;;;;7388932;19;20134;-76
2023/08/09 11:33:05;;;;;;;2.50;1.10;;;21.30;99.90;;;;;;7389377;19;20142;-73
2023/08/09 11:35:45;;;;;;;1.38;1.00;;;21.50;99.90;;;;;;7391989;19;20209;-73
2023/08/09 11:38:14;;;;;;;2.28;1.20;;;21.40;99.90;;;;;;7390453;19;20158;-75
2023/08/09 11:40:42;;;;;;;3.20;1.30;;;21.50;99.90;;;;;;7387218;19;20214;-73
2023/08/09 11:43:16;;;;;;;1.83;1.00;;;21.60;99.90;;;;;;7389897;19;20147;-74
2023/08/09 11:45:48;;;;;;;2.50;1.10;;;21.70;99.90;;;;;;7390249;19;20482;-74
2023/08/09 11:48:32;;;;;;;3.03;1.50;;;21.80;99.90;;;;;;7389265;19;20130;-74
2023/08/09 11:51:13;;;;;;;1.75;1.08;;;21.90;99.90;;;;;;7392036;19;20245;-75
2023/08/09 11:53:41;;;;;;;1.25;1.00;;;21.80;99.90;;;;;;7389540;19;20178;-74
2023/08/09 11:56:12;;;;;;;2.75;1.02;;;21.80;99.90;;;;;;7391458;19;20157;-75
2023/08/09 11:58:43;;;;;;;2.50;1.10;;;21.70;99.90;;;;;;7389447;19;20157;-75
2023/08/09 12:01:25;;;;;;;3.28;1.00;;;21.60;99.90;;;;;;7388698;19;20142;-73
2023/08/09 12:03:53;;;;;;;1.80;0.80;;;21.70;99.90;;;;;;7387904;19;20167;-75
2023/08/09 12:06:37;;;;;;;3.72;1.00;;;21.70;99.90;;;;;;7389794;19;20143;-75
2023/08/09 12:09:31;;;;;;;2.33;1.45;;;21.60;99.90;;;;;;7391327;19;20833;-75
2023/08/09 12:12:06;;;;;;;2.45;1.10;;;21.80;99.90;;;;;;7389962;19;20790;-74
2023/08/09 12:14:34;;;;;;;2.60;1.00;;;22.00;99.90;;;;;;7390308;19;20152;-75
2023/08/09 12:17:00;;;;;;;1.45;1.35;;;22.00;99.90;;;;;;7391424;19;20161;-75
2023/08/09 12:19:26;;;;;;;3.53;1.60;;;22.10;99.90;;;;;;7389391;19;20262;-73
2023/08/09 12:21:53;;;;;;;1.13;1.00;;;22.00;99.90;;;;;;7389725;19;20181;-75
2023/08/09 12:24:19;;;;;;;2.05;1.17;;;21.80;99.90;;;;;;7391321;19;20241;-73
2023/08/09 12:26:46;;;;;;;3.55;1.90;;;21.90;99.90;;;;;;7389619;19;20595;-75
2023/08/09 12:29:12;;;;;;;3.10;1.58;;;22.10;99.90;;;;;;7385816;19;20392;-75
2023/08/09 12:31:38;;;;;;;1.75;1.15;;;22.20;99.90;;;;;;7388811;19;20629;-75
2023/08/09 12:34:04;;;;;;;2.85;1.10;;;22.20;99.90;;;;;;7389339;19;20134;-75
2023/08/09 12:36:31;;;;;;;3.03;1.10;;;22.20;99.90;;;;;;7391017;19;20137;-75
2023/08/09 12:38:57;;;;;;;3.78;1.45;;;22.20;99.90;;;;;;7390740;19;20544;-74
2023/08/09 12:41:23;;;;;;;1.52;1.13;;;22.30;99.90;;;;;;7387211;19;20158;-76
2023/08/09 12:43:49;;;;;;;1.80;1.20;;;22.10;99.90;;;;;;7390146;19;20142;-75
2023/08/09 12:46:15;;;;;;;8.70;5.93;;;22.20;99.90;;;;;;7392186;19;20219;-74
2023/08/09 12:48:41;;;;;;;4.10;2.40;;;22.10;99.90;;;;;;7389252;19;20146;-77
2023/08/09 12:51:07;;;;;;;1.88;1.55;;;22.30;99.90;;;;;;7388962;19;20142;-75
2023/08/09 12:53:33;;;;;;;3.58;1.70;;;22.40;99.90;;;;;;7387467;19;20656;-74
2023/08/09 12:55:58;;;;;;;1.50;1.08;;;22.50;99.90;;;;;;7388434;19;20134;-74
2023/08/09 12:58:24;;;;;;;3.05;1.13;;;22.70;99.90;;;;;;7387898;19;20177;-74